Abiquiu, NM

9:17 PM MDT on October 21, 2014 (GMT -0600)
Los Alamos | Change Station
CLOSE
Current Station
Airport
Location: Los Alamos,
Elevation: 7172 ft
Nearby Weather Stations

Elev 7172 ft 35.88 °N, 106.27 °W | Updated 22 minutes ago

Partly Cloudy
Partly Cloudy
53 °F
Feels Like 53 °F
N
5
Wind Variable Wind from SW

Today
High -- | Low -- °F
--% Chance of Precip.
Yesterday
High -- | Low -- °F
Precip. -- in
7:17 AM 6:21 PM
Waning Crescent, 3% visible
Pressure 30.17 in
Visibility 10.0 miles
Clouds Overcast 5500 ft
Dew Point 43 °F
Humidity 68%
Rainfall 0.04 in
Snow Depth 1 in
UV 0 out of 12
Pollen 3.40 out of 12
Air Quality Not available.
Flu Activity Sporadic
METAR KLAM 220255Z AUTO 22004KT 10SM OVC055 12/06 A3017 RMK AO2 T01170060

More Conditions Fewer Conditions

Pressure 30.17 in
Visibility 10.0 miles
Clouds Overcast 5500 ft
Dew Point 43 °F
Humidity 68%
Rainfall 0.04 in
Snow Depth 1 in
UV 0 out of 12
Pollen 3.40 out of 12
Air Quality Not available.
Flu Activity Sporadic
METAR KLAM 220255Z AUTO 22004KT 10SM OVC055 12/06 A3017 RMK AO2 T01170060

More Conditions Fewer Conditions

Nowcast | as of 7:27 PM MDT on October 21, 2014

Isolated light rain showers will continue to impact much of central and western New Mexico through the evening. Additional rainfall amounts will generally be one tenth of an inch or less. Areas that may be impacted include the area from Counselor to El Vado...Acoma to Marquez...and Gallup and Quemado.

×

10-Day Weather Forecast

Almanac

Astronomy

Oct. 21, 2014 Rise Set
Actual Time 7:17 AM MDT 6:21 PM MDT
Civil Twilight 6:51 AM MDT 6:47 PM MDT
Nautical Twilight 6:21 AM MDT 7:17 PM MDT
Astronomical Twilight 5:51 AM MDT 7:46 PM MDT
Moon 5:08 AM MDT (10/21) 5:13 PM MDT (10/21)
Length of Visible Light 11h 56m
Length of Day
11h 03m
Tomorrow will be 2m 8s shorter.
Waning Crescent, 3% of the Moon is Illuminated
Today
Waning Crescent
Oct 23
New
Oct 30
First Quarter
Nov 6
Full
Nov 14
Last Quarter

Today's Extremes

State Highs State Lows

Community

WunderPhotos

Upload Photos

1,763,869 photos uploaded!

Nearby

Snow Depth

Station Depth Elevation
Quemazon 1 in 9500 ft
Bateman 0 in 9300 ft
Senorita Divide #2 0 in 8600 ft
Santa Fe 0 in 11445 ft
Gallegos Peak 0 in 9800 ft

Earthquake Activity

City Distance Mag. Time & Date
Trinidad, Colorado 96 miles 2.7 10:33 PM MDT
2014-10-20
Trinidad, Colorado 107 miles 2.5 10:01 PM MDT
2014-10-19
Minimum magnitude displayed is 2.5.

Coastal Water Temperatures

Place Temperature
No Stations Reporting

Nearby Weather Stations